createdAt,value
2018-04-16T00:00:32.146Z,975.6
2018-04-16T00:01:33.509Z,975.6
2018-04-16T00:02:34.880Z,975.6
2018-04-16T00:03:36.232Z,975.7
2018-04-16T00:04:37.779Z,975.6
2018-04-16T00:05:39.116Z,975.6
2018-04-16T00:06:40.692Z,975.5
2018-04-16T00:07:42.114Z,975.7
2018-04-16T00:08:43.754Z,975.5
2018-04-16T00:09:45.260Z,975.6
2018-04-16T00:10:46.877Z,975.3
2018-04-16T00:11:48.269Z,975.5
2018-04-16T00:12:49.926Z,975.5
2018-04-16T00:13:51.284Z,975.5
2018-04-16T00:14:53.134Z,975.2
2018-04-16T00:15:54.514Z,975.6
2018-04-16T00:16:55.879Z,975.6
2018-04-16T00:17:57.250Z,975.6
2018-04-16T00:18:58.599Z,975.6
2018-04-16T00:19:59.987Z,975.6
2018-04-16T00:21:01.411Z,975.7
2018-04-16T00:22:03.005Z,975.5
2018-04-16T00:23:04.367Z,975.7
2018-04-16T00:24:05.735Z,975.8
2018-04-16T00:25:07.153Z,975.8
2018-04-16T00:26:08.499Z,975.9
2018-04-16T00:27:09.853Z,975.9
2018-04-16T00:28:11.238Z,976
2018-04-16T00:29:12.597Z,976
2018-04-16T00:30:14.148Z,975.9
2018-04-16T00:31:15.482Z,976
2018-04-16T00:32:16.867Z,975.9
2018-04-16T00:33:18.254Z,975.9
2018-04-16T00:34:19.651Z,975.9
2018-04-16T00:35:21.041Z,975.9
2018-04-16T00:36:22.408Z,975.9
2018-04-16T00:37:23.772Z,975.9
2018-04-16T00:38:25.116Z,976
2018-04-16T00:39:26.438Z,975.9
2018-04-16T00:40:27.868Z,975.9
2018-04-16T00:41:29.319Z,976
2018-04-16T00:42:30.665Z,976
2018-04-16T00:43:32.053Z,976
2018-04-16T00:44:33.431Z,976
2018-04-16T00:45:34.922Z,976
2018-04-16T00:46:36.246Z,976
2018-04-16T00:47:37.691Z,975.8
2018-04-16T00:48:39.480Z,976
2018-04-16T00:49:40.953Z,976
2018-04-16T00:50:42.456Z,976
2018-04-16T00:51:43.832Z,975.8
2018-04-16T00:52:45.226Z,976
2018-04-16T00:53:46.576Z,976
2018-04-16T00:54:47.950Z,976
2018-04-16T00:55:49.472Z,976
2018-04-16T00:56:51.001Z,976
2018-04-16T00:57:52.379Z,976
2018-04-16T00:58:53.752Z,976.1
2018-04-16T00:59:55.109Z,976.1
2018-04-16T01:00:56.560Z,976.1
2018-04-16T01:01:57.951Z,976
2018-04-16T01:02:59.362Z,976.1
2018-04-16T01:04:00.777Z,976.1
2018-04-16T01:05:02.375Z,976.1
2018-04-16T01:06:03.811Z,976
2018-04-16T01:07:05.471Z,976
2018-04-16T01:08:06.847Z,976
2018-04-16T01:09:08.368Z,976
2018-04-16T01:10:09.749Z,975.9
2018-04-16T01:11:11.447Z,975.9
2018-04-16T01:12:12.783Z,976
2018-04-16T01:13:14.427Z,975.9
2018-04-16T01:14:15.781Z,976
2018-04-16T01:15:17.111Z,975.8
2018-04-16T01:16:18.583Z,976
2018-04-16T01:17:19.937Z,976
2018-04-16T01:18:21.271Z,976
2018-04-16T01:19:22.605Z,976
2018-04-16T01:20:23.995Z,976
2018-04-16T01:21:25.407Z,975.9
2018-04-16T01:22:26.731Z,975.9
2018-04-16T01:23:28.093Z,975.9
2018-04-16T01:24:29.432Z,975.9
2018-04-16T01:25:30.822Z,975.9
2018-04-16T01:26:32.277Z,975.9
2018-04-16T01:27:33.665Z,975.9
2018-04-16T01:28:35.018Z,976
2018-04-16T01:29:36.353Z,975.9
2018-04-16T01:30:37.684Z,975.9
2018-04-16T01:31:39.070Z,975.9
2018-04-16T01:32:40.428Z,976
2018-04-16T01:33:41.766Z,975.9
2018-04-16T01:34:43.123Z,975.9
2018-04-16T01:35:44.485Z,975.8
2018-04-16T01:36:45.876Z,975.9
2018-04-16T01:37:47.603Z,976
2018-04-16T01:38:48.972Z,975.9
2018-04-16T01:39:50.364Z,975.9
2018-04-16T01:40:51.701Z,975.8
2018-04-16T01:41:53.077Z,975.8
2018-04-16T01:42:54.417Z,975.8
2018-04-16T01:43:55.753Z,975.8
2018-04-16T01:44:57.113Z,975.8
2018-04-16T01:45:58.477Z,975.8
2018-04-16T01:46:59.883Z,975.8
2018-04-16T01:48:01.258Z,975.8
2018-04-16T01:49:02.619Z,975.8
2018-04-16T01:50:03.965Z,975.9
2018-04-16T01:51:05.348Z,975.9
2018-04-16T01:52:06.754Z,976
2018-04-16T01:53:08.102Z,976
2018-04-16T01:54:09.487Z,976
2018-04-16T01:55:10.867Z,975.9
2018-04-16T01:56:12.228Z,976
2018-04-16T01:57:13.622Z,976
2018-04-16T01:58:14.961Z,976.1
2018-04-16T01:59:16.322Z,976.1
2018-04-16T02:00:17.679Z,976.2
2018-04-16T02:01:19.037Z,976.1
2018-04-16T02:02:20.741Z,976.1
2018-04-16T02:03:22.300Z,975.9
2018-04-16T02:04:23.641Z,976
2018-04-16T02:05:25.237Z,976
2018-04-16T02:06:26.636Z,975.9
2018-04-16T02:07:28.432Z,976
2018-04-16T02:08:29.809Z,975.9
2018-04-16T02:09:31.551Z,975.7
2018-04-16T02:10:32.929Z,975.8
2018-04-16T02:11:34.650Z,975.9
2018-04-16T02:12:38.298Z,975.9
2018-04-16T02:13:39.913Z,975.9
2018-04-16T02:14:41.351Z,975.7
2018-04-16T02:15:42.805Z,975.9
2018-04-16T02:16:44.177Z,975.9
2018-04-16T02:17:45.710Z,975.9
2018-04-16T02:18:47.070Z,975.9
2018-04-16T02:19:48.432Z,975.9
2018-04-16T02:20:49.782Z,975.9
2018-04-16T02:21:51.159Z,975.9
2018-04-16T02:22:52.591Z,975.9
2018-04-16T02:23:53.954Z,975.8
2018-04-16T02:24:55.617Z,975.9
2018-04-16T02:25:56.999Z,976
2018-04-16T02:26:58.736Z,975.8
2018-04-16T02:28:00.123Z,976
2018-04-16T02:29:01.863Z,976.1
2018-04-16T02:30:03.241Z,976.2
2018-04-16T02:31:04.585Z,976.1
2018-04-16T02:32:08.794Z,976.1
2018-04-16T02:33:10.200Z,976.1
2018-04-16T02:34:11.616Z,976.2
2018-04-16T02:35:12.996Z,976.2
2018-04-16T02:36:14.343Z,976.2
2018-04-16T02:37:15.687Z,976.2
2018-04-16T02:38:17.058Z,976
2018-04-16T02:39:18.404Z,976.2
2018-04-16T02:40:19.745Z,976.2
2018-04-16T02:41:21.134Z,976.2
2018-04-16T02:42:22.517Z,976.2
2018-04-16T02:43:23.909Z,976.1
2018-04-16T02:44:25.257Z,976.3
2018-04-16T02:45:26.617Z,976.3
2018-04-16T02:46:27.999Z,976.3
2018-04-16T02:47:29.369Z,976.3
2018-04-16T02:48:30.781Z,976.3
2018-04-16T02:49:32.382Z,976.2
2018-04-16T02:50:33.732Z,976.3
2018-04-16T02:51:35.088Z,976.3
2018-04-16T02:52:36.416Z,976.2
2018-04-16T02:53:37.843Z,976.2
2018-04-16T02:54:39.181Z,976.3
2018-04-16T02:55:40.540Z,976.2
2018-04-16T02:56:41.918Z,976.2
2018-04-16T02:57:43.292Z,976.2
2018-04-16T02:58:44.764Z,976.2
2018-04-16T02:59:46.151Z,976.1
2018-04-16T03:00:47.507Z,976.2
2018-04-16T03:01:48.936Z,976.2
2018-04-16T03:02:50.363Z,976
2018-04-16T03:03:51.842Z,976.2
2018-04-16T03:04:53.211Z,976.2
2018-04-16T03:05:54.584Z,976.1
2018-04-16T03:06:55.930Z,976.1
2018-04-16T03:07:57.466Z,976
2018-04-16T03:08:58.837Z,976
2018-04-16T03:10:04.574Z,976.1
2018-04-16T03:11:05.970Z,976.1
2018-04-16T03:12:07.540Z,975.9
2018-04-16T03:13:08.881Z,976.1
2018-04-16T03:14:10.534Z,976.2
2018-04-16T03:15:11.947Z,976.2
2018-04-16T03:16:13.666Z,976.2
2018-04-16T03:17:15.050Z,976.2
2018-04-16T03:18:16.699Z,976.1
2018-04-16T03:19:18.163Z,976.3
2018-04-16T03:20:19.698Z,976.2
2018-04-16T03:21:21.028Z,976.4
2018-04-16T03:22:22.897Z,976.4
2018-04-16T03:23:24.339Z,976.4
2018-04-16T03:24:25.742Z,976.3
2018-04-16T03:25:27.096Z,976.3
2018-04-16T03:26:28.445Z,976.3
2018-04-16T03:27:29.790Z,976.3
2018-04-16T03:28:31.153Z,976.4
2018-04-16T03:29:32.560Z,976.4
2018-04-16T03:30:33.909Z,976.3
2018-04-16T03:31:35.277Z,976.3
2018-04-16T03:32:36.620Z,976.2
2018-04-16T03:33:37.983Z,976.2
2018-04-16T03:34:39.404Z,976.2
2018-04-16T03:35:40.734Z,976.2
2018-04-16T03:36:42.085Z,976.2
2018-04-16T03:37:45.651Z,976.2
2018-04-16T03:38:46.987Z,976.2
2018-04-16T03:39:48.385Z,976.1
2018-04-16T03:40:49.727Z,976.1
2018-04-16T03:41:51.110Z,976.1
2018-04-16T03:42:52.528Z,976.1
2018-04-16T03:43:53.866Z,976.2
2018-04-16T03:44:55.263Z,976.2
2018-04-16T03:45:56.603Z,976.2
2018-04-16T03:46:57.975Z,976.2
2018-04-16T03:47:59.317Z,976.2
2018-04-16T03:49:00.698Z,976.2
2018-04-16T03:50:02.148Z,976.2
2018-04-16T03:51:03.493Z,976.1
2018-04-16T03:52:04.836Z,976.2
2018-04-16T03:53:06.314Z,976.2
2018-04-16T03:54:07.723Z,976.2
2018-04-16T03:55:09.199Z,976.2
2018-04-16T03:56:10.548Z,976
2018-04-16T03:57:14.141Z,975.9
2018-04-16T03:58:15.574Z,976.3
2018-04-16T03:59:16.944Z,976.3
2018-04-16T04:00:18.369Z,976.3
2018-04-16T04:01:20.276Z,976.3
2018-04-16T04:02:21.706Z,976.3
2018-04-16T04:03:23.167Z,976.2
2018-04-16T04:04:24.538Z,976.2
2018-04-16T04:05:25.967Z,976.3
2018-04-16T04:06:27.340Z,976.4
2018-04-16T04:07:28.761Z,976.4
2018-04-16T04:08:30.166Z,976.4
2018-04-16T04:09:31.572Z,976.4
2018-04-16T04:10:33.041Z,976.3
2018-04-16T04:11:34.441Z,976.3
2018-04-16T04:12:35.799Z,976.4
2018-04-16T04:13:37.151Z,976.4
2018-04-16T04:14:38.593Z,976.5
2018-04-16T04:15:40.021Z,976.5
2018-04-16T04:16:41.980Z,976.5
2018-04-16T04:17:43.408Z,976.5
2018-04-16T04:18:44.860Z,976.6
2018-04-16T04:19:46.225Z,976.5
2018-04-16T04:20:48.012Z,976.4
2018-04-16T04:21:49.408Z,976.4
2018-04-16T04:22:51.151Z,976.5
2018-04-16T04:23:52.597Z,976.5
2018-04-16T04:24:54.327Z,976.5
2018-04-16T04:25:55.701Z,976.5
2018-04-16T04:26:57.070Z,976.5
2018-04-16T04:27:58.444Z,976.4
2018-04-16T04:28:59.832Z,976.3
2018-04-16T04:30:01.244Z,976.5
2018-04-16T04:31:02.706Z,976.5
2018-04-16T04:32:04.100Z,976.5
2018-04-16T04:33:05.422Z,976.6
2018-04-16T04:34:06.985Z,976.4
2018-04-16T04:35:08.341Z,976.5
2018-04-16T04:36:09.816Z,976.6
2018-04-16T04:37:11.184Z,976.6
2018-04-16T04:38:12.570Z,976.6
2018-04-16T04:39:13.968Z,976.6
2018-04-16T04:40:15.351Z,976.6
2018-04-16T04:41:16.795Z,976.7
2018-04-16T04:42:19.269Z,976.7
2018-04-16T04:43:20.646Z,976.7
2018-04-16T04:44:22.046Z,976.7
2018-04-16T04:45:23.530Z,976.7
2018-04-16T04:46:24.972Z,976.7
2018-04-16T04:47:26.343Z,976.7
2018-04-16T04:48:27.716Z,976.8
2018-04-16T04:49:29.091Z,976.7
2018-04-16T04:50:30.552Z,976.7
2018-04-16T04:51:32.325Z,976.7
2018-04-16T04:52:36.765Z,976.7
2018-04-16T04:53:38.096Z,976.7
2018-04-16T04:54:39.460Z,976.7
2018-04-16T04:55:40.807Z,976.7
2018-04-16T04:56:42.222Z,976.7
2018-04-16T04:57:48.573Z,976.7
2018-04-16T04:58:49.957Z,976.7
2018-04-16T04:59:51.359Z,976.7
2018-04-16T05:00:52.841Z,976.7
2018-04-16T05:01:54.334Z,976.7
2018-04-16T05:02:55.693Z,976.7
2018-04-16T05:03:57.083Z,976.7
2018-04-16T05:04:58.461Z,976.8
2018-04-16T05:05:59.868Z,976.7
2018-04-16T05:07:01.346Z,976.7
2018-04-16T05:08:02.761Z,976.7
2018-04-16T05:09:04.209Z,976.7
2018-04-16T05:10:05.614Z,976.8
2018-04-16T05:11:06.964Z,976.7
2018-04-16T05:12:09.859Z,976.6
2018-04-16T05:13:11.218Z,976.7
2018-04-16T05:14:13.864Z,976.7
2018-04-16T05:15:15.428Z,976.7
2018-04-16T05:16:16.815Z,976.7
2018-04-16T05:17:18.201Z,976.7
2018-04-16T05:18:19.716Z,976.6
2018-04-16T05:19:21.139Z,976.5
2018-04-16T05:20:22.545Z,976.7
2018-04-16T05:21:24.077Z,976.8
2018-04-16T05:22:30.450Z,976.6
2018-04-16T05:23:31.883Z,976.7
2018-04-16T05:24:33.365Z,976.7
2018-04-16T05:25:34.726Z,976.7
2018-04-16T05:26:36.092Z,976.8
2018-04-16T05:27:37.488Z,976.8
2018-04-16T05:28:38.811Z,976.9
2018-04-16T05:29:40.205Z,976.9
2018-04-16T05:30:41.568Z,977
2018-04-16T05:31:43.144Z,976.8
2018-04-16T05:32:44.582Z,976.9
2018-04-16T05:33:46.304Z,976.9
2018-04-16T05:34:49.183Z,977
2018-04-16T05:35:50.982Z,976.8
2018-04-16T05:36:52.438Z,977.1
2018-04-16T05:37:54.330Z,977.1
2018-04-16T05:38:55.785Z,977.1
2018-04-16T05:39:57.537Z,977
2018-04-16T05:40:58.961Z,977.2
2018-04-16T05:42:00.906Z,977.1
2018-04-16T05:43:02.487Z,977.2
2018-04-16T05:44:05.717Z,977.3
2018-04-16T05:45:07.157Z,977.3
2018-04-16T05:46:16.800Z,977.3
2018-04-16T05:47:18.246Z,977.4
2018-04-16T05:48:20.245Z,977.4
2018-04-16T05:49:21.603Z,977.4
2018-04-16T05:50:23.686Z,977.4
2018-04-16T05:51:28.508Z,977.4
2018-04-16T05:52:30.572Z,977.3
2018-04-16T05:53:32.091Z,977.4
2018-04-16T05:54:34.124Z,977.4
2018-04-16T05:55:35.872Z,977.2
2018-04-16T05:56:39.561Z,977.6
2018-04-16T05:57:40.964Z,977.7
2018-04-16T05:58:42.678Z,977.6
2018-04-16T05:59:44.078Z,977.8
2018-04-16T06:00:45.937Z,977.9
2018-04-16T06:01:47.423Z,977.8
2018-04-16T06:02:54.418Z,978
2018-04-16T06:03:55.881Z,978
2018-04-16T06:04:58.069Z,977.9
2018-04-16T06:05:59.559Z,977.9
2018-04-16T06:07:01.331Z,977.9
2018-04-16T06:08:02.713Z,977.9
2018-04-16T06:09:04.466Z,978
2018-04-16T06:10:05.873Z,977.9
2018-04-16T06:11:07.326Z,978
2018-04-16T06:12:08.825Z,977.9
2018-04-16T06:13:10.246Z,977.9
2018-04-16T06:14:11.637Z,977.8
2018-04-16T06:15:13.119Z,977.9
2018-04-16T06:16:14.530Z,978
2018-04-16T06:17:15.943Z,978
2018-04-16T06:18:17.340Z,978.1
2018-04-16T06:19:18.841Z,978
2018-04-16T06:20:20.257Z,978
2018-04-16T06:21:21.663Z,978
2018-04-16T06:22:23.180Z,978.1
2018-04-16T06:23:26.642Z,977.9
2018-04-16T06:24:32.551Z,978.2
2018-04-16T06:25:34.054Z,978.2
2018-04-16T06:26:35.484Z,977.9
2018-04-16T06:27:36.894Z,978.3
2018-04-16T06:28:38.385Z,978.2
2018-04-16T06:29:39.909Z,978.2
2018-04-16T06:30:41.327Z,978.3
2018-04-16T06:31:42.666Z,978.2
2018-04-16T06:32:44.105Z,978.2
2018-04-16T06:33:45.696Z,978.3
2018-04-16T06:34:47.148Z,978.3
2018-04-16T06:35:48.609Z,978.3
2018-04-16T06:36:50.165Z,978.3
2018-04-16T06:37:51.488Z,978.6
2018-04-16T06:38:52.888Z,978.6
2018-04-16T06:39:54.333Z,978.6
2018-04-16T06:40:55.730Z,978.5
2018-04-16T06:41:57.099Z,978.5
2018-04-16T06:42:58.509Z,978.6
2018-04-16T06:43:59.900Z,978.6
2018-04-16T06:45:01.451Z,978.4
2018-04-16T06:46:03.069Z,978.5
2018-04-16T06:47:04.555Z,978.7
2018-04-16T06:48:06.168Z,978.7
2018-04-16T06:49:07.779Z,978.7
2018-04-16T06:50:09.224Z,978.7
2018-04-16T06:51:10.664Z,978.7
2018-04-16T06:52:12.051Z,978.9
2018-04-16T06:53:13.562Z,978.9
2018-04-16T06:54:16.560Z,978.9
2018-04-16T06:55:17.989Z,978.8
2018-04-16T06:56:19.387Z,978.9
2018-04-16T06:57:20.773Z,978.9
2018-04-16T06:58:24.977Z,978.9
2018-04-16T06:59:26.488Z,978.9
2018-04-16T07:00:28.014Z,978.9
2018-04-16T07:01:29.461Z,979
2018-04-16T07:02:31.015Z,979
2018-04-16T07:03:33.772Z,979.1
2018-04-16T07:04:35.253Z,979
2018-04-16T07:05:36.743Z,979.1
2018-04-16T07:06:41.055Z,979.1
2018-04-16T07:07:42.551Z,979.1
2018-04-16T07:08:44.034Z,979.1
2018-04-16T07:09:47.143Z,979.2
2018-04-16T07:10:49.385Z,979.2
2018-04-16T07:11:50.846Z,979.3
2018-04-16T07:12:52.263Z,979.3
2018-04-16T07:13:53.738Z,979.2
2018-04-16T07:14:55.148Z,979.1
2018-04-16T07:15:57.552Z,979.3
2018-04-16T07:16:58.942Z,979.3
2018-04-16T07:18:00.400Z,979.4
2018-04-16T07:19:01.929Z,979.5
2018-04-16T07:20:06.231Z,979.4
2018-04-16T07:21:07.749Z,979.4
2018-04-16T07:22:11.104Z,979.4
2018-04-16T07:23:12.562Z,979.4
2018-04-16T07:24:14.588Z,979.3
2018-04-16T07:25:15.935Z,979.4
2018-04-16T07:26:17.864Z,979.3
2018-04-16T07:27:22.134Z,979.4
2018-04-16T07:28:23.846Z,979.5
2018-04-16T07:29:25.660Z,979.5
2018-04-16T07:30:27.514Z,979.5
2018-04-16T07:31:29.065Z,979.5
2018-04-16T07:32:31.849Z,979.5
2018-04-16T07:33:33.512Z,979.6
2018-04-16T07:34:35.523Z,979.6
2018-04-16T07:35:36.903Z,979.6
2018-04-16T07:36:45.676Z,979.6
2018-04-16T07:37:49.673Z,979.6
2018-04-16T07:38:51.212Z,979.6
2018-04-16T07:39:52.614Z,979.4
2018-04-16T07:40:54.441Z,979.6
2018-04-16T07:41:56.448Z,979.6
2018-04-16T07:43:01.014Z,979.6
2018-04-16T07:44:02.564Z,979.5
2018-04-16T07:45:04.179Z,979.7
2018-04-16T07:46:05.640Z,979.7
2018-04-16T07:47:07.985Z,979.8
2018-04-16T07:48:09.383Z,979.5
2018-04-16T07:49:11.280Z,979.6
2018-04-16T07:50:12.737Z,979.8
2018-04-16T07:51:17.533Z,979.6
2018-04-16T07:52:19.088Z,979.8
2018-04-16T07:53:20.911Z,979.9
2018-04-16T07:54:22.504Z,979.6
2018-04-16T07:55:24.424Z,979.8
2018-04-16T07:56:26.070Z,979.7
2018-04-16T07:57:27.842Z,979.7
2018-04-16T07:58:29.299Z,979.8
2018-04-16T07:59:34.053Z,979.8
2018-04-16T08:00:35.616Z,979.8
2018-04-16T08:01:37.499Z,979.7
2018-04-16T08:02:38.972Z,979.8
2018-04-16T08:03:40.649Z,979.8
2018-04-16T08:04:42.080Z,979.7
2018-04-16T08:05:43.994Z,979.9
2018-04-16T08:06:45.574Z,979.7
2018-04-16T08:07:47.297Z,979.7
2018-04-16T08:08:48.700Z,979.9
2018-04-16T08:09:50.123Z,979.9
2018-04-16T08:10:51.601Z,979.8
2018-04-16T08:11:53.098Z,980
2018-04-16T08:12:57.733Z,980
2018-04-16T08:13:59.266Z,980
2018-04-16T08:15:03.560Z,980
2018-04-16T08:16:05.132Z,980
2018-04-16T08:17:06.470Z,980
2018-04-16T08:18:07.972Z,979.8
2018-04-16T08:19:11.378Z,979.9
2018-04-16T08:20:12.905Z,980
2018-04-16T08:21:14.496Z,980
2018-04-16T08:22:15.922Z,980
2018-04-16T08:23:17.355Z,980
2018-04-16T08:24:18.732Z,980
2018-04-16T08:25:20.131Z,980.1
2018-04-16T08:26:32.625Z,979.8
2018-04-16T08:27:34.227Z,980
2018-04-16T08:28:35.788Z,979.8
2018-04-16T08:29:37.263Z,980.1
2018-04-16T08:30:38.654Z,980.1
2018-04-16T08:31:40.329Z,980
2018-04-16T08:32:43.954Z,979.9
2018-04-16T08:33:45.525Z,980.1
2018-04-16T08:34:47.113Z,979.8
2018-04-16T08:35:48.493Z,980
2018-04-16T08:36:49.900Z,980
2018-04-16T08:37:51.276Z,980.1
2018-04-16T08:38:52.976Z,980.1
2018-04-16T08:39:57.228Z,980.1
2018-04-16T08:40:58.599Z,980.1
2018-04-16T08:42:00.048Z,980.1
2018-04-16T08:43:01.460Z,980
2018-04-16T08:44:02.933Z,980.2
2018-04-16T08:45:07.113Z,980.1
2018-04-16T08:46:08.524Z,980.2
2018-04-16T08:47:09.964Z,980.2
2018-04-16T08:48:11.384Z,980.2
2018-04-16T08:49:12.832Z,980.1
2018-04-16T08:50:14.261Z,980.1
2018-04-16T08:51:15.709Z,980.2
2018-04-16T08:52:17.127Z,980.1
2018-04-16T08:53:22.779Z,980.2
2018-04-16T08:54:24.244Z,980
2018-04-16T08:55:25.840Z,980.2
2018-04-16T08:56:27.250Z,980.3
2018-04-16T08:57:28.713Z,980.3
2018-04-16T08:58:30.238Z,980.3
2018-04-16T08:59:31.716Z,980.2
2018-04-16T09:00:33.180Z,980.2
2018-04-16T09:01:34.672Z,980.1
2018-04-16T09:02:36.040Z,980.3
2018-04-16T09:03:37.452Z,980.3
2018-04-16T09:04:38.903Z,980.3
2018-04-16T09:05:40.322Z,980.3
2018-04-16T09:06:41.691Z,980.3
2018-04-16T09:07:43.204Z,980.3
2018-04-16T09:08:45.981Z,980.1
2018-04-16T09:09:47.426Z,980.4
2018-04-16T09:10:48.829Z,980.4
2018-04-16T09:11:50.247Z,980.4
2018-04-16T09:12:51.650Z,980.3
2018-04-16T09:13:53.101Z,980.4
2018-04-16T09:14:54.758Z,980.4
2018-04-16T09:15:56.291Z,980.5
2018-04-16T09:16:57.913Z,980.4
2018-04-16T09:17:59.401Z,980.4
2018-04-16T09:19:00.909Z,980.4
2018-04-16T09:20:07.463Z,980.4
2018-04-16T09:21:08.909Z,980.4
2018-04-16T09:22:10.505Z,980.2
2018-04-16T09:23:11.978Z,980.3
2018-04-16T09:24:13.360Z,980.3
2018-04-16T09:25:14.887Z,980.3
2018-04-16T09:26:18.640Z,980.3
2018-04-16T09:27:22.656Z,980.2
2018-04-16T09:28:24.434Z,980.3
2018-04-16T09:29:25.968Z,980.4
2018-04-16T09:30:27.400Z,980.4
2018-04-16T09:31:28.867Z,980.4
2018-04-16T09:32:30.294Z,980.3
2018-04-16T09:33:31.677Z,980.4
2018-04-16T09:34:37.367Z,980.3
2018-04-16T09:35:38.852Z,980.4
2018-04-16T09:36:40.289Z,980.4
2018-04-16T09:37:41.764Z,980.2
2018-04-16T09:38:43.116Z,980.4
2018-04-16T09:39:44.575Z,980.3
2018-04-16T09:40:46.245Z,980.4
2018-04-16T09:41:48.000Z,980.2
2018-04-16T09:42:49.569Z,980.3
2018-04-16T09:43:51.032Z,980.4
2018-04-16T09:44:52.470Z,980.4
2018-04-16T09:45:54.115Z,980.4
2018-04-16T09:46:55.750Z,980.4
2018-04-16T09:48:00.618Z,980.4
2018-04-16T09:49:02.221Z,980.3
2018-04-16T09:50:09.069Z,980.4
2018-04-16T09:51:10.643Z,980.1
2018-04-16T09:52:12.290Z,980.4
2018-04-16T09:53:13.965Z,980.4
2018-04-16T09:54:15.733Z,980.4
2018-04-16T09:55:17.172Z,980.4
2018-04-16T09:56:30.650Z,980.4
2018-04-16T09:57:32.139Z,980.4
2018-04-16T09:58:33.631Z,980.4
2018-04-16T09:59:35.293Z,980.4
2018-04-16T10:00:39.129Z,980.3
2018-04-16T10:01:40.640Z,980.3
2018-04-16T10:02:42.188Z,980.3
2018-04-16T10:03:43.701Z,980.3
2018-04-16T10:04:45.338Z,980.3
2018-04-16T10:05:46.759Z,980.3
2018-04-16T10:06:49.928Z,980.3
2018-04-16T10:07:51.418Z,980.3
2018-04-16T10:08:52.869Z,980.3
2018-04-16T10:09:54.443Z,980.3
2018-04-16T10:10:57.614Z,980.3
2018-04-16T10:11:59.114Z,980.3
2018-04-16T10:13:00.704Z,980.3
2018-04-16T10:14:05.050Z,980.3
2018-04-16T10:15:06.461Z,980.1
2018-04-16T10:16:07.898Z,980.3
2018-04-16T10:17:11.879Z,980.4
2018-04-16T10:18:19.369Z,980.3
2018-04-16T10:19:20.834Z,980.3
2018-04-16T10:20:22.204Z,980.3
2018-04-16T10:21:23.621Z,980.3
2018-04-16T10:22:25.231Z,980.1
2018-04-16T10:23:26.882Z,980.3
2018-04-16T10:24:28.374Z,980.2
2018-04-16T10:25:32.483Z,980.2
2018-04-16T10:26:33.877Z,980.3
2018-04-16T10:27:35.557Z,979.9
2018-04-16T10:28:37.133Z,980.3
2018-04-16T10:29:39.250Z,980.3
2018-04-16T10:30:40.857Z,980.1
2018-04-16T10:31:43.020Z,980.3
2018-04-16T10:32:44.841Z,980.2
2018-04-16T10:33:48.561Z,980.3
2018-04-16T10:34:50.114Z,980.3
2018-04-16T10:35:54.042Z,980.2
2018-04-16T10:36:55.649Z,980.3
2018-04-16T10:37:59.555Z,980.3
2018-04-16T10:39:01.057Z,980.2
2018-04-16T10:40:05.416Z,980.3
2018-04-16T10:41:06.931Z,980.3
2018-04-16T10:42:08.674Z,980.1
2018-04-16T10:43:10.208Z,980.3
2018-04-16T10:44:12.570Z,980.3
2018-04-16T10:45:13.999Z,980.4
2018-04-16T10:46:15.921Z,980.3
2018-04-16T10:47:17.372Z,980.4
2018-04-16T10:48:22.025Z,980.4
2018-04-16T10:49:29.940Z,980.3
2018-04-16T10:50:31.460Z,980.2
2018-04-16T10:51:32.899Z,980.4
2018-04-16T10:52:34.345Z,980.3
2018-04-16T10:53:35.917Z,980.4
2018-04-16T10:54:38.292Z,980.4
2018-04-16T10:55:39.799Z,980.4
2018-04-16T10:56:51.768Z,980.3
2018-04-16T10:57:53.388Z,980.4
2018-04-16T10:58:55.188Z,980.2
2018-04-16T10:59:56.736Z,980.5
2018-04-16T11:01:00.002Z,980.3
2018-04-16T11:02:02.677Z,980.4
2018-04-16T11:03:04.181Z,980.5
2018-04-16T11:04:06.161Z,980.3
2018-04-16T11:05:07.550Z,980.4
2018-04-16T11:06:09.993Z,980.4
2018-04-16T11:07:11.413Z,980.4
2018-04-16T11:08:12.834Z,980.4
2018-04-16T11:09:17.119Z,980.3
2018-04-16T11:10:18.537Z,980.3
2018-04-16T11:11:25.136Z,980.3
2018-04-16T11:12:26.969Z,980.3
2018-04-16T11:13:28.867Z,980.2
2018-04-16T11:14:30.714Z,980.3
2018-04-16T11:15:32.348Z,980.4
2018-04-16T11:16:37.031Z,980.2
2018-04-16T11:17:42.083Z,980.3
2018-04-16T11:18:45.529Z,980.3
2018-04-16T11:19:47.050Z,980.3
2018-04-16T11:20:51.554Z,980.2
2018-04-16T11:21:56.176Z,980.4
2018-04-16T11:22:57.805Z,980.4
2018-04-16T11:24:00.732Z,980.4
2018-04-16T11:25:10.751Z,980.4
2018-04-16T11:26:12.238Z,980.4
2018-04-16T11:27:21.029Z,980.4
2018-04-16T11:28:22.595Z,980.4
2018-04-16T11:29:24.179Z,980.4
2018-04-16T11:30:25.876Z,980.3
2018-04-16T11:31:28.655Z,980.4
2018-04-16T11:32:30.168Z,980.5
2018-04-16T11:33:40.090Z,980.5
2018-04-16T11:34:41.540Z,980.5
2018-04-16T11:35:43.292Z,980.4
2018-04-16T11:36:44.691Z,980.5
2018-04-16T11:37:46.202Z,980.4
2018-04-16T11:38:47.661Z,980.3
2018-04-16T11:39:51.928Z,980.4
2018-04-16T11:40:53.471Z,980.5
2018-04-16T11:41:54.952Z,980.4
2018-04-16T11:42:56.423Z,980.4
2018-04-16T11:43:57.852Z,980.4
2018-04-16T11:44:59.389Z,980.3
2018-04-16T11:46:01.008Z,980.4
2018-04-16T11:47:05.337Z,980.4
2018-04-16T11:48:06.785Z,980.3
2018-04-16T11:49:08.287Z,980.4
2018-04-16T11:50:09.755Z,980.4
2018-04-16T11:51:14.042Z,980.4
2018-04-16T11:52:15.599Z,980.4
2018-04-16T11:53:17.314Z,980.3
2018-04-16T11:54:18.784Z,980.3
2018-04-16T11:55:20.295Z,980.4
2018-04-16T11:56:21.843Z,980.4
2018-04-16T11:57:23.322Z,980.3
2018-04-16T11:58:25.269Z,980.2
2018-04-16T11:59:27.423Z,980.4
2018-04-16T12:00:28.963Z,980.4
2018-04-16T12:01:30.624Z,980.4
2018-04-16T12:02:32.279Z,980.4
2018-04-16T12:03:34.459Z,980.4
2018-04-16T12:04:36.046Z,980.4
2018-04-16T12:05:40.180Z,980.3
2018-04-16T12:06:41.685Z,980.5
2018-04-16T12:07:43.472Z,980.5
2018-04-16T12:08:45.286Z,980.3
2018-04-16T12:09:57.176Z,980.4
2018-04-16T12:10:58.680Z,980.4
2018-04-16T12:12:00.285Z,980.3
2018-04-16T12:13:01.743Z,980.4
2018-04-16T12:14:03.441Z,980.4
2018-04-16T12:15:04.892Z,980.3
2018-04-16T12:16:06.996Z,980.4
2018-04-16T12:17:08.563Z,980.4
2018-04-16T12:18:10.154Z,980.4
2018-04-16T12:19:11.677Z,980.4
2018-04-16T12:20:13.072Z,980.4
2018-04-16T12:21:14.738Z,980.2
2018-04-16T12:22:19.472Z,980.3
2018-04-16T12:23:23.797Z,980.4
2018-04-16T12:24:25.309Z,980.3
2018-04-16T12:25:27.252Z,980.4
2018-04-16T12:26:29.000Z,980.2
2018-04-16T12:27:30.578Z,980.1
2018-04-16T12:28:32.082Z,980.4
2018-04-16T12:29:33.562Z,980.3
2018-04-16T12:30:35.974Z,980.3
2018-04-16T12:31:37.427Z,980.4
2018-04-16T12:32:38.941Z,980.4
2018-04-16T12:33:40.645Z,980.4
2018-04-16T12:34:42.290Z,980.3
2018-04-16T12:35:43.931Z,980.3
2018-04-16T12:36:45.408Z,980.4
2018-04-16T12:37:46.859Z,980.4
2018-04-16T12:38:49.003Z,980.4
2018-04-16T12:39:50.478Z,980.4
2018-04-16T12:40:53.700Z,980.4
2018-04-16T12:41:55.383Z,980.4
2018-04-16T12:42:57.188Z,980.3
2018-04-16T12:43:58.613Z,980.4
2018-04-16T12:45:00.659Z,980.3
2018-04-16T12:46:02.245Z,980.4
2018-04-16T12:47:04.170Z,980.4
2018-04-16T12:48:05.856Z,980.4
2018-04-16T12:49:08.969Z,980.4
2018-04-16T12:50:10.424Z,980.4
2018-04-16T12:51:19.980Z,980.4
2018-04-16T12:52:21.460Z,980.3
2018-04-16T12:53:24.679Z,980.3
2018-04-16T12:54:29.024Z,980.4
2018-04-16T12:55:30.785Z,980.4
2018-04-16T12:56:35.573Z,980.4
2018-04-16T12:57:37.197Z,980.3
2018-04-16T12:58:38.676Z,980.4
2018-04-16T12:59:40.142Z,980.4
2018-04-16T13:00:41.702Z,980.4
2018-04-16T13:01:51.594Z,980.3
2018-04-16T13:02:53.014Z,980.4
2018-04-16T13:03:54.471Z,980.5
2018-04-16T13:04:56.015Z,980.5
2018-04-16T13:05:57.402Z,980.5
2018-04-16T13:06:58.913Z,980.5
2018-04-16T13:08:00.317Z,980.5
2018-04-16T13:09:01.961Z,980.5
2018-04-16T13:10:04.029Z,980.5
2018-04-16T13:11:05.581Z,980.5
2018-04-16T13:12:08.401Z,980.4
2018-04-16T13:13:09.933Z,980.5
2018-04-16T13:14:14.061Z,980.4
2018-04-16T13:15:15.527Z,980.5
2018-04-16T13:16:17.917Z,980.4
2018-04-16T13:17:19.289Z,980.5
2018-04-16T13:18:22.384Z,980.5
2018-04-16T13:19:23.851Z,980.4
2018-04-16T13:20:26.907Z,980.4
2018-04-16T13:21:33.255Z,980.4
2018-04-16T13:22:34.687Z,980.4